sensor_id;sensor_type;location;lat;lon;timestamp;P1;durP1;ratioP1;P2;durP2;ratioP2
25531;SDS011;13429;48.816;9.118;2023-03-01T00:00:21;40.67;;;19.83;;
25531;SDS011;13429;48.816;9.118;2023-03-01T00:02:47;34.22;;;18.70;;
25531;SDS011;13429;48.816;9.118;2023-03-01T00:05:13;36.28;;;19.92;;
25531;SDS011;13429;48.816;9.118;2023-03-01T00:07:39;35.90;;;19.50;;
25531;SDS011;13429;48.816;9.118;2023-03-01T00:10:05;35.50;;;19.17;;
25531;SDS011;13429;48.816;9.118;2023-03-01T00:12:32;36.40;;;20.27;;
25531;SDS011;13429;48.816;9.118;2023-03-01T00:14:58;41.38;;;18.27;;
25531;SDS011;13429;48.816;9.118;2023-03-01T00:17:24;31.48;;;18.90;;
25531;SDS011;13429;48.816;9.118;2023-03-01T00:19:50;33.20;;;18.33;;
25531;SDS011;13429;48.816;9.118;2023-03-01T00:22:16;34.45;;;17.90;;
25531;SDS011;13429;48.816;9.118;2023-03-01T00:24:42;37.08;;;18.30;;
25531;SDS011;13429;48.816;9.118;2023-03-01T00:27:08;32.53;;;17.17;;
25531;SDS011;13429;48.816;9.118;2023-03-01T00:29:34;35.97;;;18.85;;
25531;SDS011;13429;48.816;9.118;2023-03-01T00:32:00;36.80;;;18.88;;
25531;SDS011;13429;48.816;9.118;2023-03-01T00:34:26;32.28;;;18.25;;
25531;SDS011;13429;48.816;9.118;2023-03-01T00:36:52;34.47;;;18.38;;
25531;SDS011;13429;48.816;9.118;2023-03-01T00:39:18;37.38;;;18.48;;
25531;SDS011;13429;48.816;9.118;2023-03-01T00:41:44;34.03;;;17.95;;
25531;SDS011;13429;48.816;9.118;2023-03-01T00:44:10;32.90;;;18.27;;
25531;SDS011;13429;48.816;9.118;2023-03-01T00:46:36;31.20;;;18.00;;
25531;SDS011;13429;48.816;9.118;2023-03-01T00:49:03;37.25;;;18.25;;
25531;SDS011;13429;48.816;9.118;2023-03-01T00:51:29;37.67;;;18.70;;
25531;SDS011;13429;48.816;9.118;2023-03-01T00:53:57;34.75;;;18.85;;
25531;SDS011;13429;48.816;9.118;2023-03-01T00:56:23;42.53;;;20.95;;
25531;SDS011;13429;48.816;9.118;2023-03-01T00:58:49;40.50;;;18.90;;
25531;SDS011;13429;48.816;9.118;2023-03-01T01:01:16;35.95;;;20.00;;
25531;SDS011;13429;48.816;9.118;2023-03-01T01:06:14;40.20;;;21.02;;
25531;SDS011;13429;48.816;9.118;2023-03-01T01:08:40;35.73;;;18.60;;
25531;SDS011;13429;48.816;9.118;2023-03-01T01:11:08;37.88;;;19.38;;
25531;SDS011;13429;48.816;9.118;2023-03-01T01:13:34;35.90;;;19.85;;
25531;SDS011;13429;48.816;9.118;2023-03-01T01:16:00;37.75;;;19.05;;
25531;SDS011;13429;48.816;9.118;2023-03-01T01:18:26;41.95;;;20.45;;
25531;SDS011;13429;48.816;9.118;2023-03-01T01:20:53;40.13;;;19.35;;
25531;SDS011;13429;48.816;9.118;2023-03-01T01:23:19;40.92;;;19.92;;
25531;SDS011;13429;48.816;9.118;2023-03-01T01:25:45;31.98;;;18.05;;
25531;SDS011;13429;48.816;9.118;2023-03-01T01:28:11;33.42;;;18.38;;
25531;SDS011;13429;48.816;9.118;2023-03-01T01:30:37;34.63;;;18.40;;
25531;SDS011;13429;48.816;9.118;2023-03-01T01:33:06;38.40;;;19.08;;
25531;SDS011;13429;48.816;9.118;2023-03-01T01:35:32;35.47;;;18.00;;
25531;SDS011;13429;48.816;9.118;2023-03-01T01:37:58;34.88;;;18.27;;
25531;SDS011;13429;48.816;9.118;2023-03-01T01:40:24;30.85;;;17.67;;
25531;SDS011;13429;48.816;9.118;2023-03-01T01:42:50;31.25;;;17.73;;
25531;SDS011;13429;48.816;9.118;2023-03-01T01:47:55;37.38;;;18.83;;
25531;SDS011;13429;48.816;9.118;2023-03-01T01:50:23;32.38;;;17.92;;
25531;SDS011;13429;48.816;9.118;2023-03-01T01:52:49;31.88;;;18.15;;
25531;SDS011;13429;48.816;9.118;2023-03-01T01:55:17;37.42;;;19.80;;
25531;SDS011;13429;48.816;9.118;2023-03-01T01:57:47;37.60;;;18.85;;
25531;SDS011;13429;48.816;9.118;2023-03-01T02:00:18;37.58;;;18.70;;
25531;SDS011;13429;48.816;9.118;2023-03-01T02:02:45;38.33;;;19.65;;
25531;SDS011;13429;48.816;9.118;2023-03-01T02:05:20;34.05;;;17.85;;
25531;SDS011;13429;48.816;9.118;2023-03-01T02:07:49;29.20;;;17.33;;
25531;SDS011;13429;48.816;9.118;2023-03-01T02:10:16;34.60;;;17.48;;
25531;SDS011;13429;48.816;9.118;2023-03-01T02:12:42;34.72;;;18.85;;
25531;SDS011;13429;48.816;9.118;2023-03-01T02:15:08;33.53;;;18.90;;
25531;SDS011;13429;48.816;9.118;2023-03-01T02:17:34;30.80;;;18.77;;
25531;SDS011;13429;48.816;9.118;2023-03-01T02:20:07;32.58;;;17.17;;
25531;SDS011;13429;48.816;9.118;2023-03-01T02:22:36;35.70;;;18.35;;
25531;SDS011;13429;48.816;9.118;2023-03-01T02:25:06;36.08;;;19.17;;
25531;SDS011;13429;48.816;9.118;2023-03-01T02:27:36;34.40;;;19.60;;
25531;SDS011;13429;48.816;9.118;2023-03-01T02:30:04;35.25;;;18.27;;
25531;SDS011;13429;48.816;9.118;2023-03-01T02:32:31;36.22;;;19.60;;
25531;SDS011;13429;48.816;9.118;2023-03-01T02:34:57;34.15;;;19.20;;
25531;SDS011;13429;48.816;9.118;2023-03-01T02:37:23;35.80;;;19.05;;
25531;SDS011;13429;48.816;9.118;2023-03-01T02:39:53;34.47;;;18.45;;
25531;SDS011;13429;48.816;9.118;2023-03-01T02:42:23;32.38;;;18.13;;
25531;SDS011;13429;48.816;9.118;2023-03-01T02:44:51;36.72;;;19.20;;
25531;SDS011;13429;48.816;9.118;2023-03-01T02:47:18;34.95;;;18.98;;
25531;SDS011;13429;48.816;9.118;2023-03-01T02:49:44;31.48;;;17.42;;
25531;SDS011;13429;48.816;9.118;2023-03-01T02:54:41;40.75;;;19.40;;
25531;SDS011;13429;48.816;9.118;2023-03-01T02:57:09;36.28;;;18.45;;
25531;SDS011;13429;48.816;9.118;2023-03-01T02:59:36;36.47;;;18.90;;
25531;SDS011;13429;48.816;9.118;2023-03-01T03:02:04;37.75;;;19.02;;
25531;SDS011;13429;48.816;9.118;2023-03-01T03:04:30;35.63;;;20.17;;
25531;SDS011;13429;48.816;9.118;2023-03-01T03:06:56;42.92;;;20.67;;
25531;SDS011;13429;48.816;9.118;2023-03-01T03:09:22;36.75;;;20.08;;
25531;SDS011;13429;48.816;9.118;2023-03-01T03:11:49;37.15;;;20.65;;
25531;SDS011;13429;48.816;9.118;2023-03-01T03:14:16;37.97;;;19.98;;
25531;SDS011;13429;48.816;9.118;2023-03-01T03:16:43;33.97;;;16.67;;
25531;SDS011;13429;48.816;9.118;2023-03-01T03:19:09;35.90;;;19.15;;
25531;SDS011;13429;48.816;9.118;2023-03-01T03:21:36;34.95;;;18.25;;
25531;SDS011;13429;48.816;9.118;2023-03-01T03:24:02;29.73;;;16.73;;
25531;SDS011;13429;48.816;9.118;2023-03-01T03:26:28;32.67;;;18.60;;
25531;SDS011;13429;48.816;9.118;2023-03-01T03:28:54;28.45;;;16.13;;
25531;SDS011;13429;48.816;9.118;2023-03-01T03:31:20;34.90;;;17.92;;
25531;SDS011;13429;48.816;9.118;2023-03-01T03:33:46;34.45;;;18.50;;
25531;SDS011;13429;48.816;9.118;2023-03-01T03:36:19;32.83;;;18.17;;
25531;SDS011;13429;48.816;9.118;2023-03-01T03:38:45;34.65;;;19.48;;
25531;SDS011;13429;48.816;9.118;2023-03-01T03:41:12;33.22;;;18.35;;
25531;SDS011;13429;48.816;9.118;2023-03-01T03:43:39;37.78;;;19.38;;
25531;SDS011;13429;48.816;9.118;2023-03-01T03:46:05;31.67;;;17.77;;
25531;SDS011;13429;48.816;9.118;2023-03-01T03:48:36;37.17;;;18.55;;
25531;SDS011;13429;48.816;9.118;2023-03-01T03:51:02;31.83;;;16.98;;
25531;SDS011;13429;48.816;9.118;2023-03-01T03:53:30;28.40;;;17.55;;
25531;SDS011;13429;48.816;9.118;2023-03-01T03:55:56;30.05;;;16.92;;
25531;SDS011;13429;48.816;9.118;2023-03-01T03:58:23;31.73;;;16.85;;
25531;SDS011;13429;48.816;9.118;2023-03-01T04:00:51;34.78;;;17.60;;
25531;SDS011;13429;48.816;9.118;2023-03-01T04:03:18;28.77;;;16.83;;
25531;SDS011;13429;48.816;9.118;2023-03-01T04:05:45;32.53;;;17.10;;
25531;SDS011;13429;48.816;9.118;2023-03-01T04:08:11;32.22;;;17.45;;
25531;SDS011;13429;48.816;9.118;2023-03-01T04:13:04;29.92;;;16.42;;
25531;SDS011;13429;48.816;9.118;2023-03-01T04:15:30;36.92;;;18.45;;
25531;SDS011;13429;48.816;9.118;2023-03-01T04:17:57;32.67;;;16.83;;
25531;SDS011;13429;48.816;9.118;2023-03-01T04:20:24;33.70;;;17.60;;
25531;SDS011;13429;48.816;9.118;2023-03-01T04:25:23;28.92;;;16.08;;
25531;SDS011;13429;48.816;9.118;2023-03-01T04:27:49;26.90;;;16.23;;
25531;SDS011;13429;48.816;9.118;2023-03-01T04:30:15;29.58;;;17.45;;
25531;SDS011;13429;48.816;9.118;2023-03-01T04:32:41;33.00;;;17.20;;
25531;SDS011;13429;48.816;9.118;2023-03-01T04:35:07;32.03;;;16.67;;
25531;SDS011;13429;48.816;9.118;2023-03-01T04:37:33;33.47;;;17.08;;
25531;SDS011;13429;48.816;9.118;2023-03-01T04:40:00;30.00;;;16.90;;
25531;SDS011;13429;48.816;9.118;2023-03-01T04:42:26;29.35;;;16.75;;
25531;SDS011;13429;48.816;9.118;2023-03-01T04:44:52;28.52;;;16.73;;
25531;SDS011;13429;48.816;9.118;2023-03-01T04:47:18;36.35;;;18.55;;
25531;SDS011;13429;48.816;9.118;2023-03-01T04:49:44;28.77;;;16.20;;
25531;SDS011;13429;48.816;9.118;2023-03-01T04:52:10;29.55;;;17.02;;
25531;SDS011;13429;48.816;9.118;2023-03-01T04:54:36;33.28;;;17.67;;
25531;SDS011;13429;48.816;9.118;2023-03-01T04:57:02;32.72;;;17.00;;
25531;SDS011;13429;48.816;9.118;2023-03-01T04:59:28;32.67;;;17.20;;
25531;SDS011;13429;48.816;9.118;2023-03-01T05:01:55;32.38;;;18.70;;
25531;SDS011;13429;48.816;9.118;2023-03-01T05:04:22;34.60;;;18.40;;
25531;SDS011;13429;48.816;9.118;2023-03-01T05:06:48;38.83;;;19.98;;
25531;SDS011;13429;48.816;9.118;2023-03-01T05:09:14;37.80;;;19.83;;
25531;SDS011;13429;48.816;9.118;2023-03-01T05:11:40;39.95;;;20.58;;
25531;SDS011;13429;48.816;9.118;2023-03-01T05:14:07;38.03;;;21.35;;
25531;SDS011;13429;48.816;9.118;2023-03-01T05:16:33;38.22;;;20.65;;
25531;SDS011;13429;48.816;9.118;2023-03-01T05:18:59;40.65;;;21.20;;
25531;SDS011;13429;48.816;9.118;2023-03-01T05:21:25;40.03;;;20.10;;
25531;SDS011;13429;48.816;9.118;2023-03-01T05:23:52;34.25;;;18.08;;
25531;SDS011;13429;48.816;9.118;2023-03-01T05:26:20;37.28;;;18.60;;
25531;SDS011;13429;48.816;9.118;2023-03-01T05:28:47;34.53;;;18.73;;
25531;SDS011;13429;48.816;9.118;2023-03-01T05:31:13;33.20;;;19.58;;
25531;SDS011;13429;48.816;9.118;2023-03-01T05:33:39;35.83;;;19.50;;
25531;SDS011;13429;48.816;9.118;2023-03-01T05:36:08;30.45;;;16.92;;
25531;SDS011;13429;48.816;9.118;2023-03-01T05:38:35;32.00;;;19.13;;
25531;SDS011;13429;48.816;9.118;2023-03-01T05:41:01;34.22;;;19.17;;
25531;SDS011;13429;48.816;9.118;2023-03-01T05:43:30;33.15;;;18.65;;
25531;SDS011;13429;48.816;9.118;2023-03-01T05:45:58;35.08;;;19.30;;
25531;SDS011;13429;48.816;9.118;2023-03-01T05:48:25;30.35;;;17.23;;
25531;SDS011;13429;48.816;9.118;2023-03-01T05:50:51;35.17;;;18.38;;
25531;SDS011;13429;48.816;9.118;2023-03-01T05:53:18;31.13;;;17.92;;
25531;SDS011;13429;48.816;9.118;2023-03-01T05:55:46;36.42;;;20.92;;
25531;SDS011;13429;48.816;9.118;2023-03-01T05:58:17;38.47;;;20.80;;
25531;SDS011;13429;48.816;9.118;2023-03-01T06:00:44;36.70;;;18.73;;
25531;SDS011;13429;48.816;9.118;2023-03-01T06:03:11;35.47;;;19.40;;
25531;SDS011;13429;48.816;9.118;2023-03-01T06:05:37;32.88;;;17.92;;
25531;SDS011;13429;48.816;9.118;2023-03-01T06:08:04;39.22;;;18.75;;
25531;SDS011;13429;48.816;9.118;2023-03-01T06:10:30;37.35;;;19.83;;
25531;SDS011;13429;48.816;9.118;2023-03-01T06:12:56;33.97;;;18.77;;
25531;SDS011;13429;48.816;9.118;2023-03-01T06:15:22;35.38;;;19.27;;
25531;SDS011;13429;48.816;9.118;2023-03-01T06:17:49;40.83;;;19.90;;
25531;SDS011;13429;48.816;9.118;2023-03-01T06:20:19;38.08;;;19.50;;
25531;SDS011;13429;48.816;9.118;2023-03-01T06:22:46;32.95;;;19.83;;
25531;SDS011;13429;48.816;9.118;2023-03-01T06:25:14;32.85;;;18.20;;
25531;SDS011;13429;48.816;9.118;2023-03-01T06:27:41;32.13;;;18.80;;
25531;SDS011;13429;48.816;9.118;2023-03-01T06:30:08;34.42;;;19.23;;
25531;SDS011;13429;48.816;9.118;2023-03-01T06:32:35;37.63;;;19.80;;
25531;SDS011;13429;48.816;9.118;2023-03-01T06:35:02;38.58;;;20.52;;
25531;SDS011;13429;48.816;9.118;2023-03-01T06:37:28;35.15;;;20.52;;
25531;SDS011;13429;48.816;9.118;2023-03-01T06:39:54;37.28;;;19.80;;
25531;SDS011;13429;48.816;9.118;2023-03-01T06:42:20;36.75;;;19.42;;
25531;SDS011;13429;48.816;9.118;2023-03-01T06:44:46;35.00;;;19.58;;
25531;SDS011;13429;48.816;9.118;2023-03-01T06:47:12;36.47;;;19.88;;
25531;SDS011;13429;48.816;9.118;2023-03-01T06:49:38;36.97;;;19.30;;
25531;SDS011;13429;48.816;9.118;2023-03-01T06:52:04;33.15;;;19.13;;
25531;SDS011;13429;48.816;9.118;2023-03-01T06:54:30;40.50;;;20.02;;
25531;SDS011;13429;48.816;9.118;2023-03-01T06:56:56;33.28;;;18.88;;
25531;SDS011;13429;48.816;9.118;2023-03-01T06:59:22;38.28;;;19.83;;
25531;SDS011;13429;48.816;9.118;2023-03-01T07:01:48;36.15;;;20.25;;
25531;SDS011;13429;48.816;9.118;2023-03-01T07:04:14;36.15;;;19.17;;
25531;SDS011;13429;48.816;9.118;2023-03-01T07:06:40;35.92;;;19.70;;
25531;SDS011;13429;48.816;9.118;2023-03-01T07:09:06;37.35;;;20.20;;
25531;SDS011;13429;48.816;9.118;2023-03-01T07:11:32;35.63;;;19.45;;
25531;SDS011;13429;48.816;9.118;2023-03-01T07:13:58;39.47;;;21.30;;
25531;SDS011;13429;48.816;9.118;2023-03-01T07:16:25;36.15;;;19.48;;
25531;SDS011;13429;48.816;9.118;2023-03-01T07:18:51;38.60;;;19.98;;
25531;SDS011;13429;48.816;9.118;2023-03-01T07:21:17;35.20;;;19.10;;
25531;SDS011;13429;48.816;9.118;2023-03-01T07:23:43;35.78;;;21.23;;
25531;SDS011;13429;48.816;9.118;2023-03-01T07:26:09;38.08;;;18.92;;
25531;SDS011;13429;48.816;9.118;2023-03-01T07:28:35;35.83;;;19.77;;
25531;SDS011;13429;48.816;9.118;2023-03-01T07:31:03;34.42;;;19.33;;
25531;SDS011;13429;48.816;9.118;2023-03-01T07:33:29;40.50;;;21.33;;
25531;SDS011;13429;48.816;9.118;2023-03-01T07:35:59;38.67;;;21.05;;
25531;SDS011;13429;48.816;9.118;2023-03-01T07:38:26;37.25;;;20.98;;
25531;SDS011;13429;48.816;9.118;2023-03-01T07:40:52;39.97;;;21.17;;
25531;SDS011;13429;48.816;9.118;2023-03-01T07:43:19;42.85;;;21.52;;
25531;SDS011;13429;48.816;9.118;2023-03-01T07:45:45;38.92;;;20.08;;
25531;SDS011;13429;48.816;9.118;2023-03-01T07:48:11;39.38;;;21.98;;
25531;SDS011;13429;48.816;9.118;2023-03-01T07:50:37;36.00;;;20.60;;
25531;SDS011;13429;48.816;9.118;2023-03-01T07:53:03;40.67;;;20.70;;
25531;SDS011;13429;48.816;9.118;2023-03-01T07:55:29;36.72;;;20.52;;
25531;SDS011;13429;48.816;9.118;2023-03-01T07:57:55;38.03;;;20.77;;
25531;SDS011;13429;48.816;9.118;2023-03-01T08:00:21;39.95;;;21.02;;
25531;SDS011;13429;48.816;9.118;2023-03-01T08:02:47;34.65;;;20.13;;
25531;SDS011;13429;48.816;9.118;2023-03-01T08:05:13;38.88;;;21.55;;
25531;SDS011;13429;48.816;9.118;2023-03-01T08:07:40;41.83;;;20.70;;
25531;SDS011;13429;48.816;9.118;2023-03-01T08:10:06;39.42;;;21.50;;
25531;SDS011;13429;48.816;9.118;2023-03-01T08:12:32;38.45;;;20.80;;
25531;SDS011;13429;48.816;9.118;2023-03-01T08:14:58;35.42;;;19.35;;
25531;SDS011;13429;48.816;9.118;2023-03-01T08:17:24;39.53;;;20.92;;
25531;SDS011;13429;48.816;9.118;2023-03-01T08:19:50;34.08;;;19.27;;
25531;SDS011;13429;48.816;9.118;2023-03-01T08:22:16;38.78;;;20.85;;
25531;SDS011;13429;48.816;9.118;2023-03-01T08:24:42;37.22;;;20.02;;
25531;SDS011;13429;48.816;9.118;2023-03-01T08:27:08;34.72;;;20.90;;
25531;SDS011;13429;48.816;9.118;2023-03-01T08:29:35;36.15;;;19.65;;
25531;SDS011;13429;48.816;9.118;2023-03-01T08:32:01;35.92;;;19.95;;
25531;SDS011;13429;48.816;9.118;2023-03-01T08:34:27;40.83;;;22.13;;
25531;SDS011;13429;48.816;9.118;2023-03-01T08:36:53;42.75;;;21.50;;
25531;SDS011;13429;48.816;9.118;2023-03-01T08:39:19;35.92;;;20.63;;
25531;SDS011;13429;48.816;9.118;2023-03-01T08:41:46;40.67;;;20.88;;
25531;SDS011;13429;48.816;9.118;2023-03-01T08:44:12;37.10;;;18.85;;
25531;SDS011;13429;48.816;9.118;2023-03-01T08:46:39;35.88;;;20.75;;
25531;SDS011;13429;48.816;9.118;2023-03-01T08:49:07;36.28;;;21.83;;
25531;SDS011;13429;48.816;9.118;2023-03-01T08:51:33;34.42;;;19.38;;
25531;SDS011;13429;48.816;9.118;2023-03-01T08:54:05;36.90;;;20.00;;
25531;SDS011;13429;48.816;9.118;2023-03-01T08:56:31;38.25;;;22.02;;
25531;SDS011;13429;48.816;9.118;2023-03-01T08:58:57;38.55;;;21.33;;
25531;SDS011;13429;48.816;9.118;2023-03-01T09:01:23;35.05;;;19.35;;
25531;SDS011;13429;48.816;9.118;2023-03-01T09:03:50;39.10;;;20.52;;
25531;SDS011;13429;48.816;9.118;2023-03-01T09:06:16;39.40;;;20.15;;
25531;SDS011;13429;48.816;9.118;2023-03-01T09:08:43;36.95;;;21.20;;
25531;SDS011;13429;48.816;9.118;2023-03-01T09:11:10;40.97;;;21.20;;
25531;SDS011;13429;48.816;9.118;2023-03-01T09:13:36;38.33;;;21.35;;
25531;SDS011;13429;48.816;9.118;2023-03-01T09:16:04;38.80;;;21.23;;
25531;SDS011;13429;48.816;9.118;2023-03-01T09:18:30;34.90;;;19.88;;
25531;SDS011;13429;48.816;9.118;2023-03-01T09:21:10;37.40;;;19.90;;
25531;SDS011;13429;48.816;9.118;2023-03-01T09:23:36;38.03;;;20.38;;
25531;SDS011;13429;48.816;9.118;2023-03-01T09:26:07;36.25;;;20.85;;
25531;SDS011;13429;48.816;9.118;2023-03-01T09:28:34;42.55;;;23.00;;
25531;SDS011;13429;48.816;9.118;2023-03-01T09:31:01;38.33;;;20.85;;
25531;SDS011;13429;48.816;9.118;2023-03-01T09:33:27;37.25;;;19.67;;
25531;SDS011;13429;48.816;9.118;2023-03-01T09:36:01;44.25;;;22.98;;
25531;SDS011;13429;48.816;9.118;2023-03-01T09:38:27;36.58;;;21.17;;
25531;SDS011;13429;48.816;9.118;2023-03-01T09:40:53;33.28;;;18.55;;
25531;SDS011;13429;48.816;9.118;2023-03-01T09:45:48;38.58;;;22.33;;
25531;SDS011;13429;48.816;9.118;2023-03-01T09:48:16;36.95;;;19.42;;
25531;SDS011;13429;48.816;9.118;2023-03-01T09:50:43;35.72;;;20.23;;
25531;SDS011;13429;48.816;9.118;2023-03-01T09:58:28;37.25;;;20.38;;
25531;SDS011;13429;48.816;9.118;2023-03-01T10:00:56;32.58;;;19.38;;
25531;SDS011;13429;48.816;9.118;2023-03-01T10:03:36;36.40;;;20.25;;
25531;SDS011;13429;48.816;9.118;2023-03-01T10:06:14;35.35;;;20.42;;
25531;SDS011;13429;48.816;9.118;2023-03-01T10:11:21;40.67;;;21.50;;
25531;SDS011;13429;48.816;9.118;2023-03-01T10:19:10;34.55;;;20.30;;
25531;SDS011;13429;48.816;9.118;2023-03-01T10:21:39;34.65;;;19.33;;
25531;SDS011;13429;48.816;9.118;2023-03-01T10:24:16;30.02;;;19.08;;
25531;SDS011;13429;48.816;9.118;2023-03-01T10:29:17;39.10;;;19.92;;
25531;SDS011;13429;48.816;9.118;2023-03-01T10:31:46;34.80;;;19.95;;
25531;SDS011;13429;48.816;9.118;2023-03-01T10:34:16;37.45;;;19.90;;
25531;SDS011;13429;48.816;9.118;2023-03-01T10:36:43;31.27;;;18.98;;
25531;SDS011;13429;48.816;9.118;2023-03-01T10:39:28;34.13;;;19.15;;
25531;SDS011;13429;48.816;9.118;2023-03-01T10:47:13;35.95;;;22.55;;
25531;SDS011;13429;48.816;9.118;2023-03-01T10:49:39;32.85;;;19.15;;
25531;SDS011;13429;48.816;9.118;2023-03-01T10:52:20;32.75;;;19.02;;
25531;SDS011;13429;48.816;9.118;2023-03-01T10:55:00;32.33;;;20.13;;
25531;SDS011;13429;48.816;9.118;2023-03-01T10:57:28;32.65;;;18.80;;
25531;SDS011;13429;48.816;9.118;2023-03-01T11:02:41;35.50;;;19.50;;
25531;SDS011;13429;48.816;9.118;2023-03-01T11:07:51;34.08;;;18.50;;
25531;SDS011;13429;48.816;9.118;2023-03-01T11:10:19;31.10;;;18.80;;
25531;SDS011;13429;48.816;9.118;2023-03-01T11:12:45;32.28;;;18.02;;
25531;SDS011;13429;48.816;9.118;2023-03-01T11:15:25;32.15;;;19.27;;
25531;SDS011;13429;48.816;9.118;2023-03-01T11:17:52;33.15;;;17.55;;
25531;SDS011;13429;48.816;9.118;2023-03-01T11:22:50;33.65;;;18.63;;
25531;SDS011;13429;48.816;9.118;2023-03-01T11:25:17;30.27;;;18.60;;
25531;SDS011;13429;48.816;9.118;2023-03-01T11:27:45;31.02;;;18.48;;
25531;SDS011;13429;48.816;9.118;2023-03-01T11:32:59;35.45;;;17.02;;
25531;SDS011;13429;48.816;9.118;2023-03-01T11:35:27;30.48;;;16.80;;
25531;SDS011;13429;48.816;9.118;2023-03-01T11:40:51;32.63;;;18.73;;
25531;SDS011;13429;48.816;9.118;2023-03-01T11:56:42;26.88;;;16.38;;
25531;SDS011;13429;48.816;9.118;2023-03-01T11:59:16;36.35;;;17.77;;
25531;SDS011;13429;48.816;9.118;2023-03-01T12:22:51;26.38;;;16.58;;
25531;SDS011;13429;48.816;9.118;2023-03-01T12:32:40;31.88;;;17.35;;
25531;SDS011;13429;48.816;9.118;2023-03-01T12:48:13;26.77;;;16.70;;
25531;SDS011;13429;48.816;9.118;2023-03-01T12:50:47;24.98;;;15.15;;
25531;SDS011;13429;48.816;9.118;2023-03-01T12:53:20;33.25;;;18.25;;
25531;SDS011;13429;48.816;9.118;2023-03-01T12:55:47;27.42;;;16.70;;
25531;SDS011;13429;48.816;9.118;2023-03-01T12:58:21;27.10;;;16.63;;
25531;SDS011;13429;48.816;9.118;2023-03-01T13:08:52;25.92;;;16.02;;
25531;SDS011;13429;48.816;9.118;2023-03-01T13:11:19;26.05;;;16.63;;
25531;SDS011;13429;48.816;9.118;2023-03-01T13:13:46;26.75;;;16.17;;
25531;SDS011;13429;48.816;9.118;2023-03-01T13:18:46;27.20;;;17.92;;
25531;SDS011;13429;48.816;9.118;2023-03-01T13:21:12;26.85;;;16.50;;
25531;SDS011;13429;48.816;9.118;2023-03-01T13:23:38;25.95;;;16.63;;
25531;SDS011;13429;48.816;9.118;2023-03-01T13:26:17;27.45;;;16.05;;
25531;SDS011;13429;48.816;9.118;2023-03-01T13:31:56;28.55;;;18.60;;
25531;SDS011;13429;48.816;9.118;2023-03-01T13:46:39;32.42;;;16.92;;
25531;SDS011;13429;48.816;9.118;2023-03-01T13:49:09;28.70;;;17.95;;
25531;SDS011;13429;48.816;9.118;2023-03-01T13:51:37;26.10;;;16.13;;
25531;SDS011;13429;48.816;9.118;2023-03-01T13:54:03;29.40;;;16.63;;
25531;SDS011;13429;48.816;9.118;2023-03-01T13:56:33;30.50;;;18.60;;
25531;SDS011;13429;48.816;9.118;2023-03-01T13:59:02;27.35;;;16.70;;
25531;SDS011;13429;48.816;9.118;2023-03-01T14:01:31;29.55;;;18.35;;
25531;SDS011;13429;48.816;9.118;2023-03-01T14:03:57;31.30;;;15.82;;
25531;SDS011;13429;48.816;9.118;2023-03-01T14:06:24;28.88;;;16.65;;
25531;SDS011;13429;48.816;9.118;2023-03-01T14:08:52;34.42;;;18.85;;
25531;SDS011;13429;48.816;9.118;2023-03-01T14:19:25;29.17;;;17.83;;
25531;SDS011;13429;48.816;9.118;2023-03-01T14:24:54;30.27;;;17.88;;
25531;SDS011;13429;48.816;9.118;2023-03-01T14:27:20;26.88;;;16.92;;
25531;SDS011;13429;48.816;9.118;2023-03-01T14:29:54;31.67;;;17.70;;
25531;SDS011;13429;48.816;9.118;2023-03-01T14:32:21;28.80;;;17.52;;
25531;SDS011;13429;48.816;9.118;2023-03-01T14:34:48;27.58;;;18.33;;
25531;SDS011;13429;48.816;9.118;2023-03-01T14:39:47;30.10;;;17.33;;
25531;SDS011;13429;48.816;9.118;2023-03-01T14:42:14;33.50;;;18.17;;
25531;SDS011;13429;48.816;9.118;2023-03-01T14:44:41;27.20;;;16.88;;
25531;SDS011;13429;48.816;9.118;2023-03-01T14:47:12;31.65;;;18.45;;
25531;SDS011;13429;48.816;9.118;2023-03-01T14:49:40;32.45;;;18.33;;
25531;SDS011;13429;48.816;9.118;2023-03-01T14:52:07;30.10;;;18.77;;
25531;SDS011;13429;48.816;9.118;2023-03-01T14:54:44;29.85;;;17.13;;
25531;SDS011;13429;48.816;9.118;2023-03-01T14:57:24;30.48;;;17.58;;
25531;SDS011;13429;48.816;9.118;2023-03-01T14:59:51;33.15;;;18.77;;
25531;SDS011;13429;48.816;9.118;2023-03-01T15:02:20;28.63;;;17.83;;
25531;SDS011;13429;48.816;9.118;2023-03-01T15:04:47;32.85;;;19.73;;
25531;SDS011;13429;48.816;9.118;2023-03-01T15:07:14;27.80;;;16.83;;
25531;SDS011;13429;48.816;9.118;2023-03-01T15:09:40;30.95;;;17.95;;
25531;SDS011;13429;48.816;9.118;2023-03-01T15:14:51;33.60;;;18.98;;
25531;SDS011;13429;48.816;9.118;2023-03-01T15:17:39;32.65;;;19.63;;
25531;SDS011;13429;48.816;9.118;2023-03-01T15:20:06;30.83;;;17.80;;
25531;SDS011;13429;48.816;9.118;2023-03-01T15:22:32;34.65;;;18.70;;
25531;SDS011;13429;48.816;9.118;2023-03-01T15:24:58;34.30;;;20.17;;
25531;SDS011;13429;48.816;9.118;2023-03-01T15:27:25;33.35;;;19.02;;
25531;SDS011;13429;48.816;9.118;2023-03-01T15:29:52;29.10;;;17.75;;
25531;SDS011;13429;48.816;9.118;2023-03-01T15:32:29;33.40;;;19.20;;
25531;SDS011;13429;48.816;9.118;2023-03-01T15:34:56;32.88;;;19.48;;
25531;SDS011;13429;48.816;9.118;2023-03-01T15:42:46;31.73;;;18.13;;
25531;SDS011;13429;48.816;9.118;2023-03-01T15:47:46;32.95;;;18.23;;
25531;SDS011;13429;48.816;9.118;2023-03-01T15:52:45;29.00;;;17.30;;
25531;SDS011;13429;48.816;9.118;2023-03-01T15:55:16;34.33;;;18.45;;
25531;SDS011;13429;48.816;9.118;2023-03-01T15:57:42;31.00;;;17.75;;
25531;SDS011;13429;48.816;9.118;2023-03-01T16:00:11;33.13;;;17.25;;
25531;SDS011;13429;48.816;9.118;2023-03-01T16:02:38;30.48;;;17.98;;
25531;SDS011;13429;48.816;9.118;2023-03-01T16:05:47;29.73;;;17.40;;
25531;SDS011;13429;48.816;9.118;2023-03-01T16:07:55;29.17;;;17.08;;
25531;SDS011;13429;48.816;9.118;2023-03-01T16:10:21;27.92;;;16.38;;
25531;SDS011;13429;48.816;9.118;2023-03-01T16:12:48;28.58;;;17.25;;
25531;SDS011;13429;48.816;9.118;2023-03-01T16:17:52;31.58;;;17.33;;
25531;SDS011;13429;48.816;9.118;2023-03-01T16:20:18;27.80;;;17.08;;
25531;SDS011;13429;48.816;9.118;2023-03-01T16:22:44;34.22;;;20.50;;
25531;SDS011;13429;48.816;9.118;2023-03-01T16:25:11;33.10;;;17.38;;
25531;SDS011;13429;48.816;9.118;2023-03-01T16:27:38;29.77;;;16.65;;
25531;SDS011;13429;48.816;9.118;2023-03-01T16:30:05;32.97;;;19.08;;
25531;SDS011;13429;48.816;9.118;2023-03-01T16:32:31;30.77;;;17.88;;
25531;SDS011;13429;48.816;9.118;2023-03-01T16:34:57;27.70;;;17.08;;
25531;SDS011;13429;48.816;9.118;2023-03-01T16:37:23;28.73;;;16.95;;
25531;SDS011;13429;48.816;9.118;2023-03-01T16:39:49;34.58;;;20.65;;
25531;SDS011;13429;48.816;9.118;2023-03-01T16:42:17;27.33;;;15.05;;
25531;SDS011;13429;48.816;9.118;2023-03-01T16:44:43;34.72;;;17.90;;
25531;SDS011;13429;48.816;9.118;2023-03-01T16:47:09;28.98;;;16.80;;
25531;SDS011;13429;48.816;9.118;2023-03-01T16:49:35;29.67;;;18.25;;
25531;SDS011;13429;48.816;9.118;2023-03-01T16:52:01;30.58;;;17.10;;
25531;SDS011;13429;48.816;9.118;2023-03-01T16:54:27;28.40;;;16.17;;
25531;SDS011;13429;48.816;9.118;2023-03-01T16:56:53;32.75;;;17.90;;
25531;SDS011;13429;48.816;9.118;2023-03-01T16:59:19;27.15;;;15.82;;
25531;SDS011;13429;48.816;9.118;2023-03-01T17:01:45;28.75;;;15.85;;